sensor_id;sensor_type;location;lat;lon;timestamp;P1;durP1;ratioP1;P2;durP2;ratioP2
19343;SDS011;9808;52.402;16.678;2022-11-23T00:00:14;84.87;;;37.87;;
19343;SDS011;9808;52.402;16.678;2022-11-23T00:02:42;88.17;;;38.77;;
19343;SDS011;9808;52.402;16.678;2022-11-23T00:05:08;90.90;;;39.70;;
19343;SDS011;9808;52.402;16.678;2022-11-23T00:07:35;87.17;;;38.47;;
19343;SDS011;9808;52.402;16.678;2022-11-23T00:10:02;83.10;;;37.13;;
19343;SDS011;9808;52.402;16.678;2022-11-23T00:12:29;80.10;;;37.50;;
19343;SDS011;9808;52.402;16.678;2022-11-23T00:14:56;82.73;;;36.73;;
19343;SDS011;9808;52.402;16.678;2022-11-23T00:17:22;80.13;;;37.77;;
19343;SDS011;9808;52.402;16.678;2022-11-23T00:19:49;88.50;;;38.13;;
19343;SDS011;9808;52.402;16.678;2022-11-23T00:22:16;81.90;;;38.53;;
19343;SDS011;9808;52.402;16.678;2022-11-23T00:24:43;85.03;;;37.77;;
19343;SDS011;9808;52.402;16.678;2022-11-23T00:27:09;81.73;;;38.73;;
19343;SDS011;9808;52.402;16.678;2022-11-23T00:29:36;77.80;;;36.60;;
19343;SDS011;9808;52.402;16.678;2022-11-23T00:32:03;88.60;;;38.90;;
19343;SDS011;9808;52.402;16.678;2022-11-23T00:34:29;79.27;;;37.03;;
19343;SDS011;9808;52.402;16.678;2022-11-23T00:36:56;82.63;;;36.97;;
19343;SDS011;9808;52.402;16.678;2022-11-23T00:39:23;82.50;;;39.43;;
19343;SDS011;9808;52.402;16.678;2022-11-23T00:41:50;84.70;;;37.60;;
19343;SDS011;9808;52.402;16.678;2022-11-23T00:44:16;83.43;;;37.60;;
19343;SDS011;9808;52.402;16.678;2022-11-23T00:46:43;80.47;;;36.27;;
19343;SDS011;9808;52.402;16.678;2022-11-23T00:49:10;85.27;;;38.43;;
19343;SDS011;9808;52.402;16.678;2022-11-23T00:51:36;86.80;;;37.83;;
19343;SDS011;9808;52.402;16.678;2022-11-23T00:54:04;88.70;;;38.57;;
19343;SDS011;9808;52.402;16.678;2022-11-23T00:56:32;83.87;;;38.87;;
19343;SDS011;9808;52.402;16.678;2022-11-23T00:59:00;95.37;;;39.87;;
19343;SDS011;9808;52.402;16.678;2022-11-23T01:01:30;93.20;;;40.40;;
19343;SDS011;9808;52.402;16.678;2022-11-23T01:04:01;91.40;;;39.13;;
19343;SDS011;9808;52.402;16.678;2022-11-23T01:06:30;87.57;;;38.90;;
19343;SDS011;9808;52.402;16.678;2022-11-23T01:09:00;86.17;;;37.80;;
19343;SDS011;9808;52.402;16.678;2022-11-23T01:11:38;78.10;;;36.40;;
19343;SDS011;9808;52.402;16.678;2022-11-23T01:14:05;85.43;;;37.47;;
19343;SDS011;9808;52.402;16.678;2022-11-23T01:16:33;85.17;;;38.43;;
19343;SDS011;9808;52.402;16.678;2022-11-23T01:19:05;86.93;;;39.10;;
19343;SDS011;9808;52.402;16.678;2022-11-23T01:21:34;90.20;;;38.63;;
19343;SDS011;9808;52.402;16.678;2022-11-23T01:24:08;88.90;;;37.93;;
19343;SDS011;9808;52.402;16.678;2022-11-23T01:26:39;84.73;;;37.63;;
19343;SDS011;9808;52.402;16.678;2022-11-23T01:29:06;94.40;;;40.17;;
19343;SDS011;9808;52.402;16.678;2022-11-23T01:31:33;89.80;;;39.60;;
19343;SDS011;9808;52.402;16.678;2022-11-23T01:34:00;87.13;;;39.73;;
19343;SDS011;9808;52.402;16.678;2022-11-23T01:36:29;87.70;;;40.07;;
19343;SDS011;9808;52.402;16.678;2022-11-23T01:38:58;90.37;;;40.00;;
19343;SDS011;9808;52.402;16.678;2022-11-23T01:41:27;94.60;;;39.90;;
19343;SDS011;9808;52.402;16.678;2022-11-23T01:46:52;90.73;;;39.13;;
19343;SDS011;9808;52.402;16.678;2022-11-23T01:49:20;94.27;;;40.07;;
19343;SDS011;9808;52.402;16.678;2022-11-23T01:51:48;89.93;;;39.20;;
19343;SDS011;9808;52.402;16.678;2022-11-23T01:54:21;88.83;;;38.47;;
19343;SDS011;9808;52.402;16.678;2022-11-23T01:56:53;89.27;;;38.63;;
19343;SDS011;9808;52.402;16.678;2022-11-23T01:59:24;85.23;;;38.50;;
19343;SDS011;9808;52.402;16.678;2022-11-23T02:01:53;97.53;;;41.40;;
19343;SDS011;9808;52.402;16.678;2022-11-23T02:04:24;93.03;;;40.43;;
19343;SDS011;9808;52.402;16.678;2022-11-23T02:06:56;86.17;;;38.70;;
19343;SDS011;9808;52.402;16.678;2022-11-23T02:09:26;90.40;;;39.70;;
19343;SDS011;9808;52.402;16.678;2022-11-23T02:11:57;89.00;;;40.50;;
19343;SDS011;9808;52.402;16.678;2022-11-23T02:14:24;95.97;;;40.63;;
19343;SDS011;9808;52.402;16.678;2022-11-23T02:16:51;96.40;;;42.70;;
19343;SDS011;9808;52.402;16.678;2022-11-23T02:21:57;91.90;;;40.40;;
19343;SDS011;9808;52.402;16.678;2022-11-23T02:24:25;94.27;;;41.50;;
19343;SDS011;9808;52.402;16.678;2022-11-23T02:26:58;92.00;;;42.03;;
19343;SDS011;9808;52.402;16.678;2022-11-23T02:29:27;92.87;;;40.83;;
19343;SDS011;9808;52.402;16.678;2022-11-23T02:31:55;93.23;;;41.07;;
19343;SDS011;9808;52.402;16.678;2022-11-23T02:34:21;94.90;;;41.17;;
19343;SDS011;9808;52.402;16.678;2022-11-23T02:36:49;89.67;;;40.07;;
19343;SDS011;9808;52.402;16.678;2022-11-23T02:41:58;94.73;;;39.57;;
19343;SDS011;9808;52.402;16.678;2022-11-23T02:47:20;100.03;;;40.20;;
19343;SDS011;9808;52.402;16.678;2022-11-23T02:49:47;96.73;;;39.63;;
19343;SDS011;9808;52.402;16.678;2022-11-23T02:52:15;99.77;;;41.13;;
19343;SDS011;9808;52.402;16.678;2022-11-23T02:54:42;94.63;;;42.03;;
19343;SDS011;9808;52.402;16.678;2022-11-23T02:57:09;96.17;;;41.33;;
19343;SDS011;9808;52.402;16.678;2022-11-23T02:59:36;94.17;;;39.77;;
19343;SDS011;9808;52.402;16.678;2022-11-23T03:02:03;103.43;;;41.33;;
19343;SDS011;9808;52.402;16.678;2022-11-23T03:04:30;99.20;;;40.30;;
19343;SDS011;9808;52.402;16.678;2022-11-23T03:06:57;91.37;;;40.77;;
19343;SDS011;9808;52.402;16.678;2022-11-23T03:09:24;98.87;;;39.47;;
19343;SDS011;9808;52.402;16.678;2022-11-23T03:11:52;100.37;;;42.07;;
19343;SDS011;9808;52.402;16.678;2022-11-23T03:14:19;98.93;;;41.07;;
19343;SDS011;9808;52.402;16.678;2022-11-23T03:16:46;100.97;;;40.30;;
19343;SDS011;9808;52.402;16.678;2022-11-23T03:19:13;101.23;;;40.93;;
19343;SDS011;9808;52.402;16.678;2022-11-23T03:21:40;98.37;;;40.87;;
19343;SDS011;9808;52.402;16.678;2022-11-23T03:24:06;102.30;;;41.67;;
19343;SDS011;9808;52.402;16.678;2022-11-23T03:26:33;98.10;;;39.90;;
19343;SDS011;9808;52.402;16.678;2022-11-23T03:29:00;99.77;;;41.60;;
19343;SDS011;9808;52.402;16.678;2022-11-23T03:31:27;102.23;;;40.83;;
19343;SDS011;9808;52.402;16.678;2022-11-23T03:33:53;93.03;;;39.43;;
19343;SDS011;9808;52.402;16.678;2022-11-23T03:36:20;97.77;;;40.63;;
19343;SDS011;9808;52.402;16.678;2022-11-23T03:38:47;102.27;;;41.07;;
19343;SDS011;9808;52.402;16.678;2022-11-23T03:41:14;97.10;;;40.37;;
19343;SDS011;9808;52.402;16.678;2022-11-23T03:43:40;105.23;;;42.63;;
19343;SDS011;9808;52.402;16.678;2022-11-23T03:46:07;94.37;;;39.57;;
19343;SDS011;9808;52.402;16.678;2022-11-23T03:48:34;109.00;;;41.77;;
19343;SDS011;9808;52.402;16.678;2022-11-23T03:51:00;89.53;;;38.00;;
19343;SDS011;9808;52.402;16.678;2022-11-23T03:53:27;90.77;;;39.20;;
19343;SDS011;9808;52.402;16.678;2022-11-23T03:55:54;100.83;;;40.80;;
19343;SDS011;9808;52.402;16.678;2022-11-23T03:58:22;89.17;;;39.00;;
19343;SDS011;9808;52.402;16.678;2022-11-23T04:00:49;99.73;;;40.03;;
19343;SDS011;9808;52.402;16.678;2022-11-23T04:03:16;96.57;;;40.30;;
19343;SDS011;9808;52.402;16.678;2022-11-23T04:05:43;100.60;;;40.77;;
19343;SDS011;9808;52.402;16.678;2022-11-23T04:08:09;98.57;;;40.47;;
19343;SDS011;9808;52.402;16.678;2022-11-23T04:10:36;98.77;;;39.37;;
19343;SDS011;9808;52.402;16.678;2022-11-23T04:13:03;97.77;;;38.97;;
19343;SDS011;9808;52.402;16.678;2022-11-23T04:15:30;96.93;;;40.33;;
19343;SDS011;9808;52.402;16.678;2022-11-23T04:17:56;92.80;;;40.97;;
19343;SDS011;9808;52.402;16.678;2022-11-23T04:20:23;106.80;;;43.60;;
19343;SDS011;9808;52.402;16.678;2022-11-23T04:22:50;100.90;;;42.80;;
19343;SDS011;9808;52.402;16.678;2022-11-23T04:25:17;93.13;;;40.63;;
19343;SDS011;9808;52.402;16.678;2022-11-23T04:27:44;87.37;;;38.97;;
19343;SDS011;9808;52.402;16.678;2022-11-23T04:30:11;94.20;;;39.23;;
19343;SDS011;9808;52.402;16.678;2022-11-23T04:32:38;87.73;;;39.20;;
19343;SDS011;9808;52.402;16.678;2022-11-23T04:35:05;87.10;;;38.20;;
19343;SDS011;9808;52.402;16.678;2022-11-23T04:37:32;92.03;;;39.07;;
19343;SDS011;9808;52.402;16.678;2022-11-23T04:39:59;95.80;;;40.03;;
19343;SDS011;9808;52.402;16.678;2022-11-23T04:42:25;100.47;;;41.10;;
19343;SDS011;9808;52.402;16.678;2022-11-23T04:44:54;104.83;;;41.37;;
19343;SDS011;9808;52.402;16.678;2022-11-23T04:47:25;104.73;;;41.80;;
19343;SDS011;9808;52.402;16.678;2022-11-23T04:49:52;105.90;;;43.00;;
19343;SDS011;9808;52.402;16.678;2022-11-23T04:52:19;95.47;;;40.00;;
19343;SDS011;9808;52.402;16.678;2022-11-23T04:54:45;102.40;;;41.87;;
19343;SDS011;9808;52.402;16.678;2022-11-23T04:57:12;103.30;;;40.40;;
19343;SDS011;9808;52.402;16.678;2022-11-23T04:59:39;105.17;;;41.90;;
19343;SDS011;9808;52.402;16.678;2022-11-23T05:02:06;100.57;;;40.40;;
19343;SDS011;9808;52.402;16.678;2022-11-23T05:04:32;106.47;;;39.93;;
19343;SDS011;9808;52.402;16.678;2022-11-23T05:06:59;94.67;;;39.60;;
19343;SDS011;9808;52.402;16.678;2022-11-23T05:09:26;92.43;;;39.77;;
19343;SDS011;9808;52.402;16.678;2022-11-23T05:11:53;106.80;;;41.63;;
19343;SDS011;9808;52.402;16.678;2022-11-23T05:14:20;103.90;;;41.07;;
19343;SDS011;9808;52.402;16.678;2022-11-23T05:16:46;102.50;;;39.73;;
19343;SDS011;9808;52.402;16.678;2022-11-23T05:19:13;92.60;;;38.93;;
19343;SDS011;9808;52.402;16.678;2022-11-23T05:21:40;97.13;;;39.30;;
19343;SDS011;9808;52.402;16.678;2022-11-23T05:24:06;106.70;;;41.00;;
19343;SDS011;9808;52.402;16.678;2022-11-23T05:26:33;105.63;;;39.90;;
19343;SDS011;9808;52.402;16.678;2022-11-23T05:29:00;94.00;;;39.23;;
19343;SDS011;9808;52.402;16.678;2022-11-23T05:31:27;107.13;;;39.97;;
19343;SDS011;9808;52.402;16.678;2022-11-23T05:33:53;99.83;;;38.00;;
19343;SDS011;9808;52.402;16.678;2022-11-23T05:36:20;104.47;;;40.23;;
19343;SDS011;9808;52.402;16.678;2022-11-23T05:38:47;104.60;;;38.93;;
19343;SDS011;9808;52.402;16.678;2022-11-23T05:41:14;92.33;;;39.10;;
19343;SDS011;9808;52.402;16.678;2022-11-23T05:43:40;112.73;;;41.50;;
19343;SDS011;9808;52.402;16.678;2022-11-23T05:46:07;110.23;;;41.47;;
19343;SDS011;9808;52.402;16.678;2022-11-23T05:48:34;106.50;;;41.20;;
19343;SDS011;9808;52.402;16.678;2022-11-23T05:51:00;97.43;;;38.37;;
19343;SDS011;9808;52.402;16.678;2022-11-23T05:53:30;99.97;;;39.77;;
19343;SDS011;9808;52.402;16.678;2022-11-23T05:55:58;101.57;;;39.80;;
19343;SDS011;9808;52.402;16.678;2022-11-23T05:58:26;98.27;;;39.27;;
19343;SDS011;9808;52.402;16.678;2022-11-23T06:00:57;105.60;;;39.47;;
19343;SDS011;9808;52.402;16.678;2022-11-23T06:03:24;96.93;;;39.27;;
19343;SDS011;9808;52.402;16.678;2022-11-23T06:05:52;103.97;;;40.27;;
19343;SDS011;9808;52.402;16.678;2022-11-23T06:08:18;97.27;;;38.70;;
19343;SDS011;9808;52.402;16.678;2022-11-23T06:10:45;101.30;;;39.47;;
19343;SDS011;9808;52.402;16.678;2022-11-23T06:13:12;107.53;;;41.10;;
19343;SDS011;9808;52.402;16.678;2022-11-23T06:15:39;104.03;;;38.83;;
19343;SDS011;9808;52.402;16.678;2022-11-23T06:20:41;107.07;;;40.03;;
19343;SDS011;9808;52.402;16.678;2022-11-23T06:23:07;111.10;;;39.47;;
19343;SDS011;9808;52.402;16.678;2022-11-23T06:25:35;108.97;;;41.17;;
19343;SDS011;9808;52.402;16.678;2022-11-23T06:28:04;106.80;;;39.37;;
19343;SDS011;9808;52.402;16.678;2022-11-23T06:30:31;95.83;;;39.57;;
19343;SDS011;9808;52.402;16.678;2022-11-23T06:33:00;102.33;;;39.37;;
19343;SDS011;9808;52.402;16.678;2022-11-23T06:35:28;114.17;;;40.43;;
19343;SDS011;9808;52.402;16.678;2022-11-23T06:37:55;106.87;;;41.20;;
19343;SDS011;9808;52.402;16.678;2022-11-23T06:40:22;99.90;;;39.43;;
19343;SDS011;9808;52.402;16.678;2022-11-23T06:42:49;109.10;;;39.43;;
19343;SDS011;9808;52.402;16.678;2022-11-23T06:45:16;102.43;;;38.77;;
19343;SDS011;9808;52.402;16.678;2022-11-23T06:47:42;98.73;;;38.83;;
19343;SDS011;9808;52.402;16.678;2022-11-23T06:50:09;97.60;;;37.93;;
19343;SDS011;9808;52.402;16.678;2022-11-23T06:52:36;102.33;;;38.03;;
19343;SDS011;9808;52.402;16.678;2022-11-23T06:55:03;103.93;;;40.03;;
19343;SDS011;9808;52.402;16.678;2022-11-23T06:57:30;103.40;;;39.77;;
19343;SDS011;9808;52.402;16.678;2022-11-23T06:59:57;102.43;;;37.93;;
19343;SDS011;9808;52.402;16.678;2022-11-23T07:02:24;97.67;;;39.10;;
19343;SDS011;9808;52.402;16.678;2022-11-23T07:04:51;111.37;;;41.33;;
19343;SDS011;9808;52.402;16.678;2022-11-23T07:07:18;101.57;;;38.63;;
19343;SDS011;9808;52.402;16.678;2022-11-23T07:09:45;101.57;;;39.50;;
19343;SDS011;9808;52.402;16.678;2022-11-23T07:12:12;103.17;;;39.53;;
19343;SDS011;9808;52.402;16.678;2022-11-23T07:14:38;100.93;;;36.67;;
19343;SDS011;9808;52.402;16.678;2022-11-23T07:17:05;102.20;;;37.10;;
19343;SDS011;9808;52.402;16.678;2022-11-23T07:19:32;104.00;;;38.07;;
19343;SDS011;9808;52.402;16.678;2022-11-23T07:21:59;98.70;;;38.93;;
19343;SDS011;9808;52.402;16.678;2022-11-23T07:24:26;118.20;;;39.37;;
19343;SDS011;9808;52.402;16.678;2022-11-23T07:26:55;98.43;;;37.43;;
19343;SDS011;9808;52.402;16.678;2022-11-23T07:29:22;97.73;;;37.63;;
19343;SDS011;9808;52.402;16.678;2022-11-23T07:31:49;96.17;;;37.17;;
19343;SDS011;9808;52.402;16.678;2022-11-23T07:34:15;104.87;;;38.33;;
19343;SDS011;9808;52.402;16.678;2022-11-23T07:36:42;98.43;;;38.33;;
19343;SDS011;9808;52.402;16.678;2022-11-23T07:39:09;101.10;;;38.47;;
19343;SDS011;9808;52.402;16.678;2022-11-23T07:41:36;101.17;;;39.73;;
19343;SDS011;9808;52.402;16.678;2022-11-23T07:44:03;105.23;;;39.67;;
19343;SDS011;9808;52.402;16.678;2022-11-23T07:46:30;108.77;;;38.30;;
19343;SDS011;9808;52.402;16.678;2022-11-23T07:48:57;95.43;;;37.07;;
19343;SDS011;9808;52.402;16.678;2022-11-23T07:51:27;107.20;;;39.43;;
19343;SDS011;9808;52.402;16.678;2022-11-23T07:53:54;103.90;;;38.33;;
19343;SDS011;9808;52.402;16.678;2022-11-23T07:56:21;108.03;;;41.30;;
19343;SDS011;9808;52.402;16.678;2022-11-23T07:58:48;107.40;;;38.43;;
19343;SDS011;9808;52.402;16.678;2022-11-23T08:01:16;104.30;;;39.90;;
19343;SDS011;9808;52.402;16.678;2022-11-23T08:03:44;109.60;;;40.27;;
19343;SDS011;9808;52.402;16.678;2022-11-23T08:06:11;104.70;;;39.97;;
19343;SDS011;9808;52.402;16.678;2022-11-23T08:08:39;115.93;;;41.63;;
19343;SDS011;9808;52.402;16.678;2022-11-23T08:11:07;106.00;;;40.20;;
19343;SDS011;9808;52.402;16.678;2022-11-23T08:13:35;132.20;;;42.00;;
19343;SDS011;9808;52.402;16.678;2022-11-23T08:16:02;126.37;;;42.17;;
19343;SDS011;9808;52.402;16.678;2022-11-23T08:18:29;108.97;;;40.57;;
19343;SDS011;9808;52.402;16.678;2022-11-23T08:21:00;111.60;;;41.20;;
19343;SDS011;9808;52.402;16.678;2022-11-23T08:23:27;111.40;;;41.20;;
19343;SDS011;9808;52.402;16.678;2022-11-23T08:25:54;117.43;;;40.60;;
19343;SDS011;9808;52.402;16.678;2022-11-23T08:28:21;111.17;;;40.73;;
19343;SDS011;9808;52.402;16.678;2022-11-23T08:30:48;107.23;;;40.20;;
19343;SDS011;9808;52.402;16.678;2022-11-23T08:33:14;121.40;;;42.30;;
19343;SDS011;9808;52.402;16.678;2022-11-23T08:35:42;108.67;;;40.50;;
19343;SDS011;9808;52.402;16.678;2022-11-23T08:38:09;116.83;;;41.03;;
19343;SDS011;9808;52.402;16.678;2022-11-23T08:40:36;113.17;;;40.63;;
19343;SDS011;9808;52.402;16.678;2022-11-23T08:43:04;120.57;;;41.97;;
19343;SDS011;9808;52.402;16.678;2022-11-23T08:45:31;117.70;;;41.20;;
19343;SDS011;9808;52.402;16.678;2022-11-23T08:47:58;110.03;;;40.83;;
19343;SDS011;9808;52.402;16.678;2022-11-23T08:50:26;102.43;;;39.60;;
19343;SDS011;9808;52.402;16.678;2022-11-23T08:52:58;117.43;;;41.63;;
19343;SDS011;9808;52.402;16.678;2022-11-23T08:55:25;106.50;;;39.97;;
19343;SDS011;9808;52.402;16.678;2022-11-23T08:57:54;119.50;;;40.87;;
19343;SDS011;9808;52.402;16.678;2022-11-23T09:00:35;123.73;;;40.33;;
19343;SDS011;9808;52.402;16.678;2022-11-23T09:03:02;106.07;;;39.30;;
19343;SDS011;9808;52.402;16.678;2022-11-23T09:05:29;95.17;;;36.97;;
19343;SDS011;9808;52.402;16.678;2022-11-23T09:08:02;104.73;;;39.70;;
19343;SDS011;9808;52.402;16.678;2022-11-23T09:10:28;102.97;;;38.40;;
19343;SDS011;9808;52.402;16.678;2022-11-23T09:12:55;110.37;;;39.13;;
19343;SDS011;9808;52.402;16.678;2022-11-23T09:15:23;102.27;;;37.63;;
19343;SDS011;9808;52.402;16.678;2022-11-23T09:17:50;107.97;;;39.67;;
19343;SDS011;9808;52.402;16.678;2022-11-23T09:20:17;106.50;;;38.50;;
19343;SDS011;9808;52.402;16.678;2022-11-23T09:22:48;109.30;;;39.30;;
19343;SDS011;9808;52.402;16.678;2022-11-23T09:25:16;112.13;;;38.70;;
19343;SDS011;9808;52.402;16.678;2022-11-23T09:27:44;110.23;;;40.33;;
19343;SDS011;9808;52.402;16.678;2022-11-23T09:30:11;103.30;;;37.33;;
19343;SDS011;9808;52.402;16.678;2022-11-23T09:32:38;96.30;;;37.63;;
19343;SDS011;9808;52.402;16.678;2022-11-23T09:35:05;109.53;;;38.77;;
19343;SDS011;9808;52.402;16.678;2022-11-23T09:37:32;108.40;;;38.67;;
19343;SDS011;9808;52.402;16.678;2022-11-23T09:39:59;107.00;;;38.50;;
19343;SDS011;9808;52.402;16.678;2022-11-23T09:45:17;101.40;;;37.97;;
19343;SDS011;9808;52.402;16.678;2022-11-23T09:50:20;96.43;;;38.17;;
19343;SDS011;9808;52.402;16.678;2022-11-23T09:52:55;94.10;;;38.00;;
19343;SDS011;9808;52.402;16.678;2022-11-23T09:55:36;92.17;;;37.67;;
19343;SDS011;9808;52.402;16.678;2022-11-23T09:58:11;102.27;;;39.67;;
19343;SDS011;9808;52.402;16.678;2022-11-23T10:00:42;96.57;;;36.90;;
19343;SDS011;9808;52.402;16.678;2022-11-23T10:03:14;93.57;;;36.67;;
19343;SDS011;9808;52.402;16.678;2022-11-23T10:05:48;111.30;;;38.03;;
19343;SDS011;9808;52.402;16.678;2022-11-23T10:08:38;100.93;;;38.80;;
19343;SDS011;9808;52.402;16.678;2022-11-23T10:11:19;100.60;;;38.97;;
19343;SDS011;9808;52.402;16.678;2022-11-23T10:16:38;96.63;;;37.57;;
19343;SDS011;9808;52.402;16.678;2022-11-23T10:24:31;92.70;;;35.27;;
19343;SDS011;9808;52.402;16.678;2022-11-23T10:27:05;95.33;;;36.70;;
19343;SDS011;9808;52.402;16.678;2022-11-23T10:29:46;93.90;;;35.37;;
19343;SDS011;9808;52.402;16.678;2022-11-23T10:32:23;92.60;;;35.87;;
19343;SDS011;9808;52.402;16.678;2022-11-23T10:37:37;94.57;;;34.47;;
19343;SDS011;9808;52.402;16.678;2022-11-23T10:40:14;85.83;;;34.33;;
19343;SDS011;9808;52.402;16.678;2022-11-23T10:42:43;96.30;;;35.27;;
19343;SDS011;9808;52.402;16.678;2022-11-23T10:45:27;95.40;;;35.50;;
19343;SDS011;9808;52.402;16.678;2022-11-23T10:47:55;91.50;;;35.23;;
19343;SDS011;9808;52.402;16.678;2022-11-23T10:50:27;88.43;;;36.23;;
19343;SDS011;9808;52.402;16.678;2022-11-23T10:55:51;103.33;;;35.90;;
19343;SDS011;9808;52.402;16.678;2022-11-23T10:58:31;85.63;;;34.17;;
19343;SDS011;9808;52.402;16.678;2022-11-23T11:01:05;92.00;;;34.67;;
19343;SDS011;9808;52.402;16.678;2022-11-23T11:03:38;91.97;;;35.93;;
19343;SDS011;9808;52.402;16.678;2022-11-23T11:06:05;89.90;;;34.03;;
19343;SDS011;9808;52.402;16.678;2022-11-23T11:08:36;99.30;;;36.80;;
19343;SDS011;9808;52.402;16.678;2022-11-23T11:13:47;88.80;;;34.43;;
19343;SDS011;9808;52.402;16.678;2022-11-23T11:16:21;93.80;;;35.13;;
19343;SDS011;9808;52.402;16.678;2022-11-23T11:18:56;102.10;;;35.43;;
19343;SDS011;9808;52.402;16.678;2022-11-23T11:21:26;93.97;;;34.30;;
19343;SDS011;9808;52.402;16.678;2022-11-23T11:26:31;93.63;;;35.33;;
19343;SDS011;9808;52.402;16.678;2022-11-23T11:29:04;99.90;;;36.73;;
19343;SDS011;9808;52.402;16.678;2022-11-23T11:37:46;90.07;;;35.23;;
19343;SDS011;9808;52.402;16.678;2022-11-23T11:46:09;97.90;;;36.30;;
19343;SDS011;9808;52.402;16.678;2022-11-23T11:51:39;97.50;;;35.87;;
19343;SDS011;9808;52.402;16.678;2022-11-23T11:54:23;90.93;;;35.40;;
19343;SDS011;9808;52.402;16.678;2022-11-23T11:57:30;93.03;;;36.33;;
19343;SDS011;9808;52.402;16.678;2022-11-23T12:00:05;93.40;;;35.23;;
19343;SDS011;9808;52.402;16.678;2022-11-23T12:05:37;96.10;;;35.73;;
19343;SDS011;9808;52.402;16.678;2022-11-23T12:08:29;86.33;;;34.67;;
19343;SDS011;9808;52.402;16.678;2022-11-23T12:10:59;87.40;;;34.13;;
19343;SDS011;9808;52.402;16.678;2022-11-23T12:13:33;95.43;;;36.40;;
19343;SDS011;9808;52.402;16.678;2022-11-23T12:16:07;84.70;;;34.60;;
19343;SDS011;9808;52.402;16.678;2022-11-23T12:18:39;83.83;;;34.70;;
19343;SDS011;9808;52.402;16.678;2022-11-23T12:30:15;96.93;;;37.37;;
19343;SDS011;9808;52.402;16.678;2022-11-23T12:33:57;95.57;;;37.97;;
19343;SDS011;9808;52.402;16.678;2022-11-23T12:36:07;98.40;;;37.80;;
19343;SDS011;9808;52.402;16.678;2022-11-23T12:38:45;97.67;;;37.83;;
19343;SDS011;9808;52.402;16.678;2022-11-23T12:41:28;95.00;;;36.50;;
19343;SDS011;9808;52.402;16.678;2022-11-23T12:55:48;92.60;;;36.33;;
19343;SDS011;9808;52.402;16.678;2022-11-23T12:58:31;89.30;;;34.60;;
19343;SDS011;9808;52.402;16.678;2022-11-23T13:01:02;94.57;;;37.23;;
19343;SDS011;9808;52.402;16.678;2022-11-23T13:18:18;91.23;;;34.73;;
19343;SDS011;9808;52.402;16.678;2022-11-23T13:23:50;84.87;;;35.83;;
19343;SDS011;9808;52.402;16.678;2022-11-23T13:26:18;93.23;;;37.37;;
19343;SDS011;9808;52.402;16.678;2022-11-23T13:28:57;88.50;;;35.80;;
19343;SDS011;9808;52.402;16.678;2022-11-23T13:31:27;100.60;;;38.97;;
19343;SDS011;9808;52.402;16.678;2022-11-23T13:33:57;94.63;;;37.73;;
19343;SDS011;9808;52.402;16.678;2022-11-23T13:42:16;90.83;;;37.70;;
19343;SDS011;9808;52.402;16.678;2022-11-23T13:44:43;95.17;;;36.33;;
19343;SDS011;9808;52.402;16.678;2022-11-23T13:49:42;100.43;;;38.10;;
19343;SDS011;9808;52.402;16.678;2022-11-23T13:52:19;90.13;;;36.20;;
19343;SDS011;9808;52.402;16.678;2022-11-23T13:57:39;97.47;;;38.67;;
19343;SDS011;9808;52.402;16.678;2022-11-23T14:09:37;101.37;;;39.17;;
19343;SDS011;9808;52.402;16.678;2022-11-23T14:15:15;114.13;;;41.70;;
19343;SDS011;9808;52.402;16.678;2022-11-23T14:25:59;102.53;;;41.83;;
19343;SDS011;9808;52.402;16.678;2022-11-23T14:28:51;104.60;;;42.90;;
19343;SDS011;9808;52.402;16.678;2022-11-23T14:34:12;99.57;;;39.63;;
19343;SDS011;9808;52.402;16.678;2022-11-23T14:42:50;108.17;;;40.37;;
19343;SDS011;9808;52.402;16.678;2022-11-23T14:45:20;96.23;;;39.90;;
19343;SDS011;9808;52.402;16.678;2022-11-23T14:47:48;100.10;;;42.10;;
19343;SDS011;9808;52.402;16.678;2022-11-23T14:50:19;109.70;;;41.40;;
19343;SDS011;9808;52.402;16.678;2022-11-23T14:52:54;101.97;;;41.60;;
19343;SDS011;9808;52.402;16.678;2022-11-23T14:55:24;102.70;;;44.60;;
19343;SDS011;9808;52.402;16.678;2022-11-23T14:57:54;98.57;;;41.33;;
19343;SDS011;9808;52.402;16.678;2022-11-23T15:00:29;108.17;;;43.87;;
19343;SDS011;9808;52.402;16.678;2022-11-23T15:03:37;102.37;;;41.83;;
19343;SDS011;9808;52.402;16.678;2022-11-23T15:06:17;96.90;;;39.20;;
19343;SDS011;9808;52.402;16.678;2022-11-23T15:08:59;100.23;;;40.60;;
19343;SDS011;9808;52.402;16.678;2022-11-23T15:11:35;92.50;;;39.77;;
19343;SDS011;9808;52.402;16.678;2022-11-23T15:14:03;100.07;;;38.93;;
19343;SDS011;9808;52.402;16.678;2022-11-23T15:16:50;96.10;;;39.90;;
19343;SDS011;9808;52.402;16.678;2022-11-23T15:19:27;107.87;;;42.13;;
19343;SDS011;9808;52.402;16.678;2022-11-23T15:21:55;98.03;;;40.13;;
19343;SDS011;9808;52.402;16.678;2022-11-23T15:24:23;106.87;;;41.77;;
19343;SDS011;9808;52.402;16.678;2022-11-23T15:26:52;109.23;;;44.33;;
19343;SDS011;9808;52.402;16.678;2022-11-23T15:31:54;110.00;;;42.23;;
19343;SDS011;9808;52.402;16.678;2022-11-23T15:34:41;102.70;;;43.43;;
19343;SDS011;9808;52.402;16.678;2022-11-23T15:37:07;100.03;;;42.60;;
19343;SDS011;9808;52.402;16.678;2022-11-23T15:39:36;98.90;;;43.87;;
19343;SDS011;9808;52.402;16.678;2022-11-23T15:42:03;105.23;;;45.17;;
19343;SDS011;9808;52.402;16.678;2022-11-23T15:44:31;108.73;;;47.80;;
19343;SDS011;9808;52.402;16.678;2022-11-23T15:47:04;106.33;;;44.23;;
19343;SDS011;9808;52.402;16.678;2022-11-23T15:49:36;105.27;;;43.53;;
19343;SDS011;9808;52.402;16.678;2022-11-23T15:52:03;109.43;;;44.63;;
19343;SDS011;9808;52.402;16.678;2022-11-23T15:54:34;108.93;;;43.67;;
19343;SDS011;9808;52.402;16.678;2022-11-23T15:57:07;101.77;;;42.87;;
19343;SDS011;9808;52.402;16.678;2022-11-23T15:59:43;105.37;;;44.33;;
19343;SDS011;9808;52.402;16.678;2022-11-23T16:02:14;104.30;;;44.37;;
19343;SDS011;9808;52.402;16.678;2022-11-23T16:07:52;100.60;;;43.73;;
19343;SDS011;9808;52.402;16.678;2022-11-23T16:10:25;108.27;;;44.43;;
19343;SDS011;9808;52.402;16.678;2022-11-23T16:13:00;107.67;;;45.73;;
19343;SDS011;9808;52.402;16.678;2022-11-23T16:17:58;110.90;;;45.53;;
19343;SDS011;9808;52.402;16.678;2022-11-23T16:20:26;103.30;;;43.97;;
19343;SDS011;9808;52.402;16.678;2022-11-23T16:22:54;106.73;;;45.03;;
19343;SDS011;9808;52.402;16.678;2022-11-23T16:25:27;109.13;;;44.57;;
19343;SDS011;9808;52.402;16.678;2022-11-23T16:28:13;108.00;;;43.33;;
19343;SDS011;9808;52.402;16.678;2022-11-23T16:30:52;101.43;;;41.70;;
19343;SDS011;9808;52.402;16.678;2022-11-23T16:33:19;100.63;;;42.13;;
19343;SDS011;9808;52.402;16.678;2022-11-23T16:35:46;98.57;;;42.10;;
19343;SDS011;9808;52.402;16.678;2022-11-23T16:38:13;98.80;;;42.03;;
19343;SDS011;9808;52.402;16.678;2022-11-23T16:40:40;99.93;;;42.57;;
19343;SDS011;9808;52.402;16.678;2022-11-23T16:43:11;98.60;;;41.40;;
19343;SDS011;9808;52.402;16.678;2022-11-23T16:45:39;95.67;;;42.43;;
19343;SDS011;9808;52.402;16.678;2022-11-23T16:48:34;103.40;;;41.63;;
19343;SDS011;9808;52.402;16.678;2022-11-23T16:51:03;100.33;;;42.57;;
19343;SDS011;9808;52.402;16.678;2022-11-23T16:53:30;104.33;;;42.40;;